sensor_id;sensor_type;location;lat;lon;timestamp;P1;durP1;ratioP1;P2;durP2;ratioP2
82401;SDS011;72040;55.842;37.384;2023-12-07T00:00:36;7.97;;;5.63;;
82401;SDS011;72040;55.842;37.384;2023-12-07T00:03:02;7.35;;;5.47;;
82401;SDS011;72040;55.842;37.384;2023-12-07T00:05:28;8.40;;;5.65;;
82401;SDS011;72040;55.842;37.384;2023-12-07T00:07:54;8.20;;;5.97;;
82401;SDS011;72040;55.842;37.384;2023-12-07T00:10:20;9.85;;;5.70;;
82401;SDS011;72040;55.842;37.384;2023-12-07T00:12:45;8.38;;;5.60;;
82401;SDS011;72040;55.842;37.384;2023-12-07T00:15:11;8.07;;;5.78;;
82401;SDS011;72040;55.842;37.384;2023-12-07T00:17:38;8.27;;;5.07;;
82401;SDS011;72040;55.842;37.384;2023-12-07T00:20:03;7.70;;;4.95;;
82401;SDS011;72040;55.842;37.384;2023-12-07T00:22:31;7.35;;;5.35;;
82401;SDS011;72040;55.842;37.384;2023-12-07T00:24:57;7.70;;;5.78;;
82401;SDS011;72040;55.842;37.384;2023-12-07T00:27:22;7.70;;;5.28;;
82401;SDS011;72040;55.842;37.384;2023-12-07T00:29:48;9.00;;;5.80;;
82401;SDS011;72040;55.842;37.384;2023-12-07T00:32:14;7.50;;;5.68;;
82401;SDS011;72040;55.842;37.384;2023-12-07T00:34:40;7.30;;;5.03;;
82401;SDS011;72040;55.842;37.384;2023-12-07T00:37:05;7.70;;;5.68;;
82401;SDS011;72040;55.842;37.384;2023-12-07T00:39:32;8.23;;;5.22;;
82401;SDS011;72040;55.842;37.384;2023-12-07T00:41:59;7.63;;;5.53;;
82401;SDS011;72040;55.842;37.384;2023-12-07T00:44:24;9.27;;;6.38;;
82401;SDS011;72040;55.842;37.384;2023-12-07T00:46:51;7.95;;;5.28;;
82401;SDS011;72040;55.842;37.384;2023-12-07T00:49:17;8.10;;;5.47;;
82401;SDS011;72040;55.842;37.384;2023-12-07T00:51:43;8.35;;;5.53;;
82401;SDS011;72040;55.842;37.384;2023-12-07T00:54:08;8.25;;;5.20;;
82401;SDS011;72040;55.842;37.384;2023-12-07T00:56:34;9.05;;;5.57;;
82401;SDS011;72040;55.842;37.384;2023-12-07T00:59:00;8.05;;;5.07;;
82401;SDS011;72040;55.842;37.384;2023-12-07T01:01:28;9.18;;;5.95;;
82401;SDS011;72040;55.842;37.384;2023-12-07T01:03:53;7.80;;;5.82;;
82401;SDS011;72040;55.842;37.384;2023-12-07T01:06:19;10.40;;;5.82;;
82401;SDS011;72040;55.842;37.384;2023-12-07T01:08:45;8.90;;;5.47;;
82401;SDS011;72040;55.842;37.384;2023-12-07T01:11:10;7.25;;;5.03;;
82401;SDS011;72040;55.842;37.384;2023-12-07T01:13:36;8.25;;;6.22;;
82401;SDS011;72040;55.842;37.384;2023-12-07T01:16:02;8.90;;;5.47;;
82401;SDS011;72040;55.842;37.384;2023-12-07T01:18:28;10.18;;;5.70;;
82401;SDS011;72040;55.842;37.384;2023-12-07T01:20:53;7.90;;;5.70;;
82401;SDS011;72040;55.842;37.384;2023-12-07T01:23:19;7.28;;;5.82;;
82401;SDS011;72040;55.842;37.384;2023-12-07T01:25:45;9.77;;;5.35;;
82401;SDS011;72040;55.842;37.384;2023-12-07T01:28:11;7.80;;;5.82;;
82401;SDS011;72040;55.842;37.384;2023-12-07T01:30:37;7.75;;;5.60;;
82401;SDS011;72040;55.842;37.384;2023-12-07T01:33:02;7.47;;;4.78;;
82401;SDS011;72040;55.842;37.384;2023-12-07T01:35:28;8.35;;;5.20;;
82401;SDS011;72040;55.842;37.384;2023-12-07T01:37:54;7.30;;;5.03;;
82401;SDS011;72040;55.842;37.384;2023-12-07T01:40:19;8.85;;;5.82;;
82401;SDS011;72040;55.842;37.384;2023-12-07T01:42:51;7.63;;;5.63;;
82401;SDS011;72040;55.842;37.384;2023-12-07T01:45:18;8.23;;;5.47;;
82401;SDS011;72040;55.842;37.384;2023-12-07T01:47:44;6.60;;;5.05;;
82401;SDS011;72040;55.842;37.384;2023-12-07T01:50:12;8.80;;;5.53;;
82401;SDS011;72040;55.842;37.384;2023-12-07T01:52:43;7.38;;;5.20;;
82401;SDS011;72040;55.842;37.384;2023-12-07T01:55:11;8.75;;;5.28;;
82401;SDS011;72040;55.842;37.384;2023-12-07T01:57:37;7.07;;;4.60;;
82401;SDS011;72040;55.842;37.384;2023-12-07T02:00:03;8.85;;;5.60;;
82401;SDS011;72040;55.842;37.384;2023-12-07T02:02:31;7.30;;;5.05;;
82401;SDS011;72040;55.842;37.384;2023-12-07T02:04:57;8.07;;;5.38;;
82401;SDS011;72040;55.842;37.384;2023-12-07T02:07:23;9.73;;;5.55;;
82401;SDS011;72040;55.842;37.384;2023-12-07T02:09:49;7.65;;;5.15;;
82401;SDS011;72040;55.842;37.384;2023-12-07T02:12:15;8.88;;;5.82;;
82401;SDS011;72040;55.842;37.384;2023-12-07T02:14:41;7.30;;;5.35;;
82401;SDS011;72040;55.842;37.384;2023-12-07T02:20:42;7.60;;;5.40;;
82401;SDS011;72040;55.842;37.384;2023-12-07T02:22:54;8.25;;;5.72;;
82401;SDS011;72040;55.842;37.384;2023-12-07T02:25:28;14.10;;;5.20;;
82401;SDS011;72040;55.842;37.384;2023-12-07T02:27:57;8.27;;;5.90;;
82401;SDS011;72040;55.842;37.384;2023-12-07T02:30:23;7.50;;;5.53;;
82401;SDS011;72040;55.842;37.384;2023-12-07T02:32:48;7.93;;;5.30;;
82401;SDS011;72040;55.842;37.384;2023-12-07T02:35:14;7.95;;;4.95;;
82401;SDS011;72040;55.842;37.384;2023-12-07T02:37:44;8.20;;;6.00;;
82401;SDS011;72040;55.842;37.384;2023-12-07T02:40:12;6.75;;;4.97;;
82401;SDS011;72040;55.842;37.384;2023-12-07T02:42:43;8.07;;;5.10;;
82401;SDS011;72040;55.842;37.384;2023-12-07T02:45:10;7.47;;;5.57;;
82401;SDS011;72040;55.842;37.384;2023-12-07T02:47:37;6.90;;;4.95;;
82401;SDS011;72040;55.842;37.384;2023-12-07T02:50:04;7.57;;;5.55;;
82401;SDS011;72040;55.842;37.384;2023-12-07T02:52:30;7.70;;;5.10;;
82401;SDS011;72040;55.842;37.384;2023-12-07T02:54:57;8.63;;;5.15;;
82401;SDS011;72040;55.842;37.384;2023-12-07T02:57:23;8.93;;;6.18;;
82401;SDS011;72040;55.842;37.384;2023-12-07T02:59:49;7.43;;;4.88;;
82401;SDS011;72040;55.842;37.384;2023-12-07T03:02:14;7.13;;;4.65;;
82401;SDS011;72040;55.842;37.384;2023-12-07T03:04:40;7.20;;;4.72;;
82401;SDS011;72040;55.842;37.384;2023-12-07T03:07:06;6.93;;;4.72;;
82401;SDS011;72040;55.842;37.384;2023-12-07T03:09:32;7.60;;;5.10;;
82401;SDS011;72040;55.842;37.384;2023-12-07T03:11:58;7.22;;;4.55;;
82401;SDS011;72040;55.842;37.384;2023-12-07T03:14:23;7.35;;;5.57;;
82401;SDS011;72040;55.842;37.384;2023-12-07T03:16:49;7.05;;;5.28;;
82401;SDS011;72040;55.842;37.384;2023-12-07T03:19:15;7.05;;;4.93;;
82401;SDS011;72040;55.842;37.384;2023-12-07T03:21:41;6.90;;;5.00;;
82401;SDS011;72040;55.842;37.384;2023-12-07T03:24:08;10.38;;;5.25;;
82401;SDS011;72040;55.842;37.384;2023-12-07T03:26:34;10.10;;;5.60;;
82401;SDS011;72040;55.842;37.384;2023-12-07T03:29:00;6.88;;;4.78;;
82401;SDS011;72040;55.842;37.384;2023-12-07T03:31:26;6.93;;;4.88;;
82401;SDS011;72040;55.842;37.384;2023-12-07T03:33:53;7.22;;;5.05;;
82401;SDS011;72040;55.842;37.384;2023-12-07T03:36:18;7.38;;;4.72;;
82401;SDS011;72040;55.842;37.384;2023-12-07T03:38:44;7.80;;;5.10;;
82401;SDS011;72040;55.842;37.384;2023-12-07T03:41:10;7.07;;;4.88;;
82401;SDS011;72040;55.842;37.384;2023-12-07T03:43:36;6.60;;;4.57;;
82401;SDS011;72040;55.842;37.384;2023-12-07T03:46:04;6.97;;;4.68;;
82401;SDS011;72040;55.842;37.384;2023-12-07T03:48:31;5.85;;;4.50;;
82401;SDS011;72040;55.842;37.384;2023-12-07T03:50:57;7.55;;;5.07;;
82401;SDS011;72040;55.842;37.384;2023-12-07T03:53:23;7.57;;;5.35;;
82401;SDS011;72040;55.842;37.384;2023-12-07T03:55:50;7.70;;;5.18;;
82401;SDS011;72040;55.842;37.384;2023-12-07T03:58:16;8.80;;;5.05;;
82401;SDS011;72040;55.842;37.384;2023-12-07T04:00:42;7.15;;;5.00;;
82401;SDS011;72040;55.842;37.384;2023-12-07T04:03:07;7.50;;;4.63;;
82401;SDS011;72040;55.842;37.384;2023-12-07T04:05:33;7.75;;;4.50;;
82401;SDS011;72040;55.842;37.384;2023-12-07T04:07:59;8.48;;;4.95;;
82401;SDS011;72040;55.842;37.384;2023-12-07T04:10:25;7.28;;;4.07;;
82401;SDS011;72040;55.842;37.384;2023-12-07T04:12:51;8.90;;;5.18;;
82401;SDS011;72040;55.842;37.384;2023-12-07T04:15:19;7.20;;;4.90;;
82401;SDS011;72040;55.842;37.384;2023-12-07T04:17:45;6.75;;;4.68;;
82401;SDS011;72040;55.842;37.384;2023-12-07T04:20:11;6.68;;;4.72;;
82401;SDS011;72040;55.842;37.384;2023-12-07T04:22:38;8.13;;;5.57;;
82401;SDS011;72040;55.842;37.384;2023-12-07T04:25:05;7.30;;;4.60;;
82401;SDS011;72040;55.842;37.384;2023-12-07T04:27:33;6.60;;;4.15;;
82401;SDS011;72040;55.842;37.384;2023-12-07T04:29:59;8.95;;;4.90;;
82401;SDS011;72040;55.842;37.384;2023-12-07T04:32:24;6.32;;;4.32;;
82401;SDS011;72040;55.842;37.384;2023-12-07T04:34:51;8.43;;;5.50;;
82401;SDS011;72040;55.842;37.384;2023-12-07T04:37:17;6.82;;;4.45;;
82401;SDS011;72040;55.842;37.384;2023-12-07T04:39:43;7.63;;;4.90;;
82401;SDS011;72040;55.842;37.384;2023-12-07T04:42:08;8.52;;;5.25;;
82401;SDS011;72040;55.842;37.384;2023-12-07T04:44:37;7.13;;;5.22;;
82401;SDS011;72040;55.842;37.384;2023-12-07T04:47:09;6.43;;;4.25;;
82401;SDS011;72040;55.842;37.384;2023-12-07T04:49:36;8.40;;;4.97;;
82401;SDS011;72040;55.842;37.384;2023-12-07T04:52:01;7.07;;;5.28;;
82401;SDS011;72040;55.842;37.384;2023-12-07T04:54:27;6.50;;;4.13;;
82401;SDS011;72040;55.842;37.384;2023-12-07T04:56:53;7.63;;;4.90;;
82401;SDS011;72040;55.842;37.384;2023-12-07T04:59:19;7.03;;;4.72;;
82401;SDS011;72040;55.842;37.384;2023-12-07T05:01:45;6.10;;;4.28;;
82401;SDS011;72040;55.842;37.384;2023-12-07T05:04:12;6.40;;;4.72;;
82401;SDS011;72040;55.842;37.384;2023-12-07T05:06:38;8.85;;;5.43;;
82401;SDS011;72040;55.842;37.384;2023-12-07T05:09:03;7.60;;;5.65;;
82401;SDS011;72040;55.842;37.384;2023-12-07T05:11:29;7.40;;;5.38;;
82401;SDS011;72040;55.842;37.384;2023-12-07T05:13:55;7.13;;;5.70;;
82401;SDS011;72040;55.842;37.384;2023-12-07T05:16:20;8.20;;;5.30;;
82401;SDS011;72040;55.842;37.384;2023-12-07T05:18:46;8.18;;;5.07;;
82401;SDS011;72040;55.842;37.384;2023-12-07T05:21:13;13.88;;;6.30;;
82401;SDS011;72040;55.842;37.384;2023-12-07T05:23:40;8.68;;;5.97;;
82401;SDS011;72040;55.842;37.384;2023-12-07T05:26:07;8.45;;;5.20;;
82401;SDS011;72040;55.842;37.384;2023-12-07T05:28:33;7.15;;;5.68;;
82401;SDS011;72040;55.842;37.384;2023-12-07T05:30:59;7.93;;;6.22;;
82401;SDS011;72040;55.842;37.384;2023-12-07T05:33:25;10.00;;;5.85;;
82401;SDS011;72040;55.842;37.384;2023-12-07T05:35:51;8.63;;;6.28;;
82401;SDS011;72040;55.842;37.384;2023-12-07T05:38:20;7.85;;;5.70;;
82401;SDS011;72040;55.842;37.384;2023-12-07T05:40:46;12.52;;;6.97;;
82401;SDS011;72040;55.842;37.384;2023-12-07T05:43:13;12.70;;;6.72;;
82401;SDS011;72040;55.842;37.384;2023-12-07T05:45:40;12.48;;;6.40;;
82401;SDS011;72040;55.842;37.384;2023-12-07T05:48:07;11.60;;;6.55;;
82401;SDS011;72040;55.842;37.384;2023-12-07T05:50:33;14.48;;;6.82;;
82401;SDS011;72040;55.842;37.384;2023-12-07T05:53:06;13.75;;;7.65;;
82401;SDS011;72040;55.842;37.384;2023-12-07T05:55:34;14.30;;;6.47;;
82401;SDS011;72040;55.842;37.384;2023-12-07T05:58:00;13.77;;;6.45;;
82401;SDS011;72040;55.842;37.384;2023-12-07T06:00:25;11.65;;;7.50;;
82401;SDS011;72040;55.842;37.384;2023-12-07T06:02:52;13.93;;;7.20;;
82401;SDS011;72040;55.842;37.384;2023-12-07T06:05:18;15.82;;;7.28;;
82401;SDS011;72040;55.842;37.384;2023-12-07T06:07:44;12.93;;;6.40;;
82401;SDS011;72040;55.842;37.384;2023-12-07T06:10:11;12.13;;;6.80;;
82401;SDS011;72040;55.842;37.384;2023-12-07T06:12:36;14.25;;;8.10;;
82401;SDS011;72040;55.842;37.384;2023-12-07T06:15:02;12.30;;;7.60;;
82401;SDS011;72040;55.842;37.384;2023-12-07T06:17:33;13.57;;;8.48;;
82401;SDS011;72040;55.842;37.384;2023-12-07T06:20:00;14.45;;;8.25;;
82401;SDS011;72040;55.842;37.384;2023-12-07T06:22:29;12.05;;;7.93;;
82401;SDS011;72040;55.842;37.384;2023-12-07T06:24:55;15.50;;;9.18;;
82401;SDS011;72040;55.842;37.384;2023-12-07T06:27:21;13.85;;;7.85;;
82401;SDS011;72040;55.842;37.384;2023-12-07T06:29:47;16.40;;;8.77;;
82401;SDS011;72040;55.842;37.384;2023-12-07T06:32:14;14.48;;;9.43;;
82401;SDS011;72040;55.842;37.384;2023-12-07T06:34:40;64.68;;;29.13;;
82401;SDS011;72040;55.842;37.384;2023-12-07T06:37:06;53.47;;;27.17;;
82401;SDS011;72040;55.842;37.384;2023-12-07T06:39:32;72.20;;;34.00;;
82401;SDS011;72040;55.842;37.384;2023-12-07T06:41:58;77.38;;;38.55;;
82401;SDS011;72040;55.842;37.384;2023-12-07T06:44:25;72.93;;;34.55;;
82401;SDS011;72040;55.842;37.384;2023-12-07T06:46:50;68.13;;;32.50;;
82401;SDS011;72040;55.842;37.384;2023-12-07T06:49:16;67.18;;;32.38;;
82401;SDS011;72040;55.842;37.384;2023-12-07T06:51:42;67.30;;;31.95;;
82401;SDS011;72040;55.842;37.384;2023-12-07T06:54:07;57.22;;;31.45;;
82401;SDS011;72040;55.842;37.384;2023-12-07T06:56:33;60.33;;;30.58;;
82401;SDS011;72040;55.842;37.384;2023-12-07T06:58:59;60.63;;;31.88;;
82401;SDS011;72040;55.842;37.384;2023-12-07T07:01:26;58.40;;;28.35;;
82401;SDS011;72040;55.842;37.384;2023-12-07T07:03:51;52.20;;;26.63;;
82401;SDS011;72040;55.842;37.384;2023-12-07T07:06:17;49.70;;;26.20;;
82401;SDS011;72040;55.842;37.384;2023-12-07T07:08:43;49.35;;;25.20;;
82401;SDS011;72040;55.842;37.384;2023-12-07T07:11:11;47.63;;;25.38;;
82401;SDS011;72040;55.842;37.384;2023-12-07T07:13:38;49.35;;;25.33;;
82401;SDS011;72040;55.842;37.384;2023-12-07T07:16:04;46.60;;;24.48;;
82401;SDS011;72040;55.842;37.384;2023-12-07T07:18:30;43.28;;;24.33;;
82401;SDS011;72040;55.842;37.384;2023-12-07T07:20:56;44.63;;;22.27;;
82401;SDS011;72040;55.842;37.384;2023-12-07T07:23:21;45.58;;;22.38;;
82401;SDS011;72040;55.842;37.384;2023-12-07T07:25:47;43.00;;;23.42;;
82401;SDS011;72040;55.842;37.384;2023-12-07T07:28:13;42.22;;;22.60;;
82401;SDS011;72040;55.842;37.384;2023-12-07T07:30:39;39.60;;;21.45;;
82401;SDS011;72040;55.842;37.384;2023-12-07T07:33:05;40.33;;;21.30;;
82401;SDS011;72040;55.842;37.384;2023-12-07T07:35:33;37.00;;;21.25;;
82401;SDS011;72040;55.842;37.384;2023-12-07T07:37:59;50.75;;;27.67;;
82401;SDS011;72040;55.842;37.384;2023-12-07T07:40:26;66.95;;;37.33;;
82401;SDS011;72040;55.842;37.384;2023-12-07T07:42:52;153.77;;;80.15;;
82401;SDS011;72040;55.842;37.384;2023-12-07T07:45:17;201.90;;;90.05;;
82401;SDS011;72040;55.842;37.384;2023-12-07T07:47:44;292.60;;;126.60;;
82401;SDS011;72040;55.842;37.384;2023-12-07T07:50:10;322.17;;;141.18;;
82401;SDS011;72040;55.842;37.384;2023-12-07T07:52:36;352.00;;;154.95;;
82401;SDS011;72040;55.842;37.384;2023-12-07T07:55:03;351.88;;;163.93;;
82401;SDS011;72040;55.842;37.384;2023-12-07T07:57:30;375.33;;;178.35;;
82401;SDS011;72040;55.842;37.384;2023-12-07T07:59:57;462.20;;;227.88;;
82401;SDS011;72040;55.842;37.384;2023-12-07T08:02:23;412.80;;;191.65;;
82401;SDS011;72040;55.842;37.384;2023-12-07T08:04:54;410.95;;;185.75;;
82401;SDS011;72040;55.842;37.384;2023-12-07T08:07:20;381.65;;;175.45;;
82401;SDS011;72040;55.842;37.384;2023-12-07T08:09:46;367.83;;;163.07;;
82401;SDS011;72040;55.842;37.384;2023-12-07T08:12:11;356.88;;;159.93;;
82401;SDS011;72040;55.842;37.384;2023-12-07T08:14:40;329.65;;;149.75;;
82401;SDS011;72040;55.842;37.384;2023-12-07T08:17:09;324.67;;;148.10;;
82401;SDS011;72040;55.842;37.384;2023-12-07T08:19:35;317.63;;;144.23;;
82401;SDS011;72040;55.842;37.384;2023-12-07T08:22:01;285.10;;;130.10;;
82401;SDS011;72040;55.842;37.384;2023-12-07T08:24:26;294.70;;;132.40;;
82401;SDS011;72040;55.842;37.384;2023-12-07T08:26:52;258.20;;;116.32;;
82401;SDS011;72040;55.842;37.384;2023-12-07T08:29:18;275.83;;;125.03;;
82401;SDS011;72040;55.842;37.384;2023-12-07T08:31:43;263.90;;;114.80;;
82401;SDS011;72040;55.842;37.384;2023-12-07T08:34:09;246.02;;;112.75;;
82401;SDS011;72040;55.842;37.384;2023-12-07T08:36:35;203.48;;;92.40;;
82401;SDS011;72040;55.842;37.384;2023-12-07T08:39:01;193.02;;;88.80;;
82401;SDS011;72040;55.842;37.384;2023-12-07T08:41:28;202.75;;;91.25;;
82401;SDS011;72040;55.842;37.384;2023-12-07T08:43:54;178.65;;;83.88;;
82401;SDS011;72040;55.842;37.384;2023-12-07T08:46:20;174.43;;;79.88;;
82401;SDS011;72040;55.842;37.384;2023-12-07T08:48:45;155.15;;;76.45;;
82401;SDS011;72040;55.842;37.384;2023-12-07T08:51:11;149.88;;;72.18;;
82401;SDS011;72040;55.842;37.384;2023-12-07T08:53:37;149.07;;;68.50;;
82401;SDS011;72040;55.842;37.384;2023-12-07T08:56:04;130.50;;;60.72;;
82401;SDS011;72040;55.842;37.384;2023-12-07T08:58:30;121.38;;;59.70;;
82401;SDS011;72040;55.842;37.384;2023-12-07T09:00:55;118.38;;;57.55;;
82401;SDS011;72040;55.842;37.384;2023-12-07T09:03:21;113.20;;;57.35;;
82401;SDS011;72040;55.842;37.384;2023-12-07T09:05:52;108.15;;;55.53;;
82401;SDS011;72040;55.842;37.384;2023-12-07T09:08:19;104.03;;;51.55;;
82401;SDS011;72040;55.842;37.384;2023-12-07T09:10:45;96.15;;;49.95;;
82401;SDS011;72040;55.842;37.384;2023-12-07T09:13:10;94.10;;;49.30;;
82401;SDS011;72040;55.842;37.384;2023-12-07T09:15:36;87.85;;;45.58;;
82401;SDS011;72040;55.842;37.384;2023-12-07T09:18:03;89.07;;;45.53;;
82401;SDS011;72040;55.842;37.384;2023-12-07T09:20:30;85.28;;;43.75;;
82401;SDS011;72040;55.842;37.384;2023-12-07T09:22:57;78.75;;;41.78;;
82401;SDS011;72040;55.842;37.384;2023-12-07T09:25:22;73.20;;;38.45;;
82401;SDS011;72040;55.842;37.384;2023-12-07T09:27:48;65.80;;;35.30;;
82401;SDS011;72040;55.842;37.384;2023-12-07T09:30:14;68.82;;;39.13;;
82401;SDS011;72040;55.842;37.384;2023-12-07T09:32:42;62.33;;;34.15;;
82401;SDS011;72040;55.842;37.384;2023-12-07T09:35:08;59.47;;;32.97;;
82401;SDS011;72040;55.842;37.384;2023-12-07T09:37:50;58.42;;;32.55;;
82401;SDS011;72040;55.842;37.384;2023-12-07T09:40:16;58.03;;;32.03;;
82401;SDS011;72040;55.842;37.384;2023-12-07T09:42:45;58.17;;;30.08;;
82401;SDS011;72040;55.842;37.384;2023-12-07T09:45:12;54.85;;;29.88;;
82401;SDS011;72040;55.842;37.384;2023-12-07T09:47:39;53.20;;;29.17;;
82401;SDS011;72040;55.842;37.384;2023-12-07T09:50:06;49.72;;;28.50;;
82401;SDS011;72040;55.842;37.384;2023-12-07T09:52:38;54.10;;;28.08;;
82401;SDS011;72040;55.842;37.384;2023-12-07T09:55:04;51.95;;;25.80;;
82401;SDS011;72040;55.842;37.384;2023-12-07T09:57:31;47.58;;;27.70;;
82401;SDS011;72040;55.842;37.384;2023-12-07T09:59:58;42.65;;;24.55;;
82401;SDS011;72040;55.842;37.384;2023-12-07T10:02:23;38.35;;;22.52;;
82401;SDS011;72040;55.842;37.384;2023-12-07T10:05:03;39.38;;;21.98;;
82401;SDS011;72040;55.842;37.384;2023-12-07T10:10:02;38.38;;;21.42;;
82401;SDS011;72040;55.842;37.384;2023-12-07T10:12:32;38.30;;;22.50;;
82401;SDS011;72040;55.842;37.384;2023-12-07T10:15:11;33.78;;;18.63;;
82401;SDS011;72040;55.842;37.384;2023-12-07T10:20:13;33.58;;;20.10;;
82401;SDS011;72040;55.842;37.384;2023-12-07T10:22:44;35.38;;;20.38;;
82401;SDS011;72040;55.842;37.384;2023-12-07T10:25:12;32.63;;;17.38;;
82401;SDS011;72040;55.842;37.384;2023-12-07T10:27:40;32.35;;;18.38;;
82401;SDS011;72040;55.842;37.384;2023-12-07T10:30:10;29.58;;;17.33;;
82401;SDS011;72040;55.842;37.384;2023-12-07T10:32:38;32.20;;;17.65;;
82401;SDS011;72040;55.842;37.384;2023-12-07T10:35:07;32.70;;;18.35;;
82401;SDS011;72040;55.842;37.384;2023-12-07T10:37:34;28.13;;;16.27;;
82401;SDS011;72040;55.842;37.384;2023-12-07T10:39:59;28.85;;;16.70;;
82401;SDS011;72040;55.842;37.384;2023-12-07T10:42:30;29.58;;;16.27;;
82401;SDS011;72040;55.842;37.384;2023-12-07T10:44:58;29.88;;;16.98;;
82401;SDS011;72040;55.842;37.384;2023-12-07T10:47:32;28.38;;;15.73;;
82401;SDS011;72040;55.842;37.384;2023-12-07T10:50:08;25.48;;;15.25;;
82401;SDS011;72040;55.842;37.384;2023-12-07T10:52:44;27.27;;;14.50;;
82401;SDS011;72040;55.842;37.384;2023-12-07T10:55:20;30.88;;;15.82;;
82401;SDS011;72040;55.842;37.384;2023-12-07T10:57:54;24.20;;;13.38;;
82401;SDS011;72040;55.842;37.384;2023-12-07T11:00:25;26.92;;;14.55;;
82401;SDS011;72040;55.842;37.384;2023-12-07T11:03:01;23.95;;;14.48;;
82401;SDS011;72040;55.842;37.384;2023-12-07T11:05:28;22.98;;;14.40;;
82401;SDS011;72040;55.842;37.384;2023-12-07T11:08:02;22.50;;;13.88;;
82401;SDS011;72040;55.842;37.384;2023-12-07T11:14:05;24.50;;;13.65;;
82401;SDS011;72040;55.842;37.384;2023-12-07T11:16:45;21.73;;;12.25;;
82401;SDS011;72040;55.842;37.384;2023-12-07T11:21:58;19.23;;;11.38;;
82401;SDS011;72040;55.842;37.384;2023-12-07T11:24:26;22.52;;;13.27;;
82401;SDS011;72040;55.842;37.384;2023-12-07T11:26:55;19.20;;;11.77;;
82401;SDS011;72040;55.842;37.384;2023-12-07T11:29:21;19.48;;;11.88;;
82401;SDS011;72040;55.842;37.384;2023-12-07T11:31:52;18.75;;;10.75;;
82401;SDS011;72040;55.842;37.384;2023-12-07T11:34:38;19.15;;;10.40;;
82401;SDS011;72040;55.842;37.384;2023-12-07T11:37:04;16.45;;;10.77;;
82401;SDS011;72040;55.842;37.384;2023-12-07T11:39:35;17.20;;;10.77;;
82401;SDS011;72040;55.842;37.384;2023-12-07T11:42:16;17.00;;;10.40;;
82401;SDS011;72040;55.842;37.384;2023-12-07T11:44:43;16.77;;;10.45;;
82401;SDS011;72040;55.842;37.384;2023-12-07T11:47:15;16.02;;;9.68;;
82401;SDS011;72040;55.842;37.384;2023-12-07T11:49:42;16.60;;;9.00;;
82401;SDS011;72040;55.842;37.384;2023-12-07T11:54:41;14.95;;;10.05;;
82401;SDS011;72040;55.842;37.384;2023-12-07T11:57:10;17.85;;;9.38;;
82401;SDS011;72040;55.842;37.384;2023-12-07T11:59:36;12.85;;;8.95;;
82401;SDS011;72040;55.842;37.384;2023-12-07T12:02:01;15.40;;;9.15;;
82401;SDS011;72040;55.842;37.384;2023-12-07T12:04:28;16.13;;;8.32;;
82401;SDS011;72040;55.842;37.384;2023-12-07T12:06:54;15.70;;;8.93;;
82401;SDS011;72040;55.842;37.384;2023-12-07T12:09:19;16.75;;;8.63;;
82401;SDS011;72040;55.842;37.384;2023-12-07T12:11:49;14.20;;;8.55;;
82401;SDS011;72040;55.842;37.384;2023-12-07T12:14:16;14.18;;;8.60;;
82401;SDS011;72040;55.842;37.384;2023-12-07T12:16:46;14.38;;;8.60;;
82401;SDS011;72040;55.842;37.384;2023-12-07T12:19:12;13.65;;;8.73;;
82401;SDS011;72040;55.842;37.384;2023-12-07T12:21:41;12.77;;;8.23;;
82401;SDS011;72040;55.842;37.384;2023-12-07T12:24:10;14.48;;;8.23;;
82401;SDS011;72040;55.842;37.384;2023-12-07T12:26:37;14.23;;;8.98;;
82401;SDS011;72040;55.842;37.384;2023-12-07T12:29:05;13.88;;;8.45;;
82401;SDS011;72040;55.842;37.384;2023-12-07T12:31:31;12.23;;;7.97;;
82401;SDS011;72040;55.842;37.384;2023-12-07T12:33:57;13.90;;;8.75;;
82401;SDS011;72040;55.842;37.384;2023-12-07T12:36:23;11.70;;;7.70;;
82401;SDS011;72040;55.842;37.384;2023-12-07T12:38:52;15.25;;;8.65;;
82401;SDS011;72040;55.842;37.384;2023-12-07T12:41:18;16.08;;;8.00;;
82401;SDS011;72040;55.842;37.384;2023-12-07T12:43:45;13.60;;;8.23;;
82401;SDS011;72040;55.842;37.384;2023-12-07T12:46:11;17.48;;;7.93;;
82401;SDS011;72040;55.842;37.384;2023-12-07T12:48:37;11.55;;;7.38;;
82401;SDS011;72040;55.842;37.384;2023-12-07T12:51:13;13.02;;;8.02;;
82401;SDS011;72040;55.842;37.384;2023-12-07T12:53:45;15.50;;;9.50;;
82401;SDS011;72040;55.842;37.384;2023-12-07T12:56:14;16.27;;;9.40;;
82401;SDS011;72040;55.842;37.384;2023-12-07T12:58:40;12.70;;;8.35;;
82401;SDS011;72040;55.842;37.384;2023-12-07T13:01:06;14.65;;;8.45;;
82401;SDS011;72040;55.842;37.384;2023-12-07T13:03:32;12.68;;;7.82;;
82401;SDS011;72040;55.842;37.384;2023-12-07T13:05:58;19.67;;;9.82;;
82401;SDS011;72040;55.842;37.384;2023-12-07T13:08:24;16.23;;;8.05;;
82401;SDS011;72040;55.842;37.384;2023-12-07T13:10:50;13.65;;;8.70;;
82401;SDS011;72040;55.842;37.384;2023-12-07T13:13:15;12.40;;;8.05;;
82401;SDS011;72040;55.842;37.384;2023-12-07T13:15:41;11.48;;;7.00;;
82401;SDS011;72040;55.842;37.384;2023-12-07T13:18:07;17.85;;;7.93;;
82401;SDS011;72040;55.842;37.384;2023-12-07T13:20:34;14.95;;;7.55;;
82401;SDS011;72040;55.842;37.384;2023-12-07T13:23:03;13.23;;;7.07;;
82401;SDS011;72040;55.842;37.384;2023-12-07T13:25:28;16.15;;;8.68;;
82401;SDS011;72040;55.842;37.384;2023-12-07T13:27:54;14.45;;;8.15;;
82401;SDS011;72040;55.842;37.384;2023-12-07T13:30:20;13.23;;;8.25;;
82401;SDS011;72040;55.842;37.384;2023-12-07T13:32:46;13.13;;;8.93;;
82401;SDS011;72040;55.842;37.384;2023-12-07T13:35:13;14.00;;;8.65;;
82401;SDS011;72040;55.842;37.384;2023-12-07T13:37:39;13.68;;;8.50;;
82401;SDS011;72040;55.842;37.384;2023-12-07T13:40:05;12.63;;;8.13;;
82401;SDS011;72040;55.842;37.384;2023-12-07T13:42:35;11.57;;;7.47;;
82401;SDS011;72040;55.842;37.384;2023-12-07T13:45:01;11.35;;;7.60;;
82401;SDS011;72040;55.842;37.384;2023-12-07T13:47:30;12.15;;;7.53;;
82401;SDS011;72040;55.842;37.384;2023-12-07T13:50:04;11.88;;;8.27;;
82401;SDS011;72040;55.842;37.384;2023-12-07T13:52:32;11.63;;;7.72;;
82401;SDS011;72040;55.842;37.384;2023-12-07T13:54:58;13.68;;;8.73;;
82401;SDS011;72040;55.842;37.384;2023-12-07T13:57:25;13.90;;;8.05;;
82401;SDS011;72040;55.842;37.384;2023-12-07T13:59:52;12.80;;;7.80;;
82401;SDS011;72040;55.842;37.384;2023-12-07T14:02:19;15.45;;;8.85;;
82401;SDS011;72040;55.842;37.384;2023-12-07T14:04:45;11.73;;;8.25;;
82401;SDS011;72040;55.842;37.384;2023-12-07T14:07:15;12.00;;;7.55;;
82401;SDS011;72040;55.842;37.384;2023-12-07T14:09:42;14.52;;;8.13;;
82401;SDS011;72040;55.842;37.384;2023-12-07T14:12:10;13.65;;;7.50;;
82401;SDS011;72040;55.842;37.384;2023-12-07T14:17:08;11.73;;;7.18;;
82401;SDS011;72040;55.842;37.384;2023-12-07T14:19:34;11.45;;;6.70;;
82401;SDS011;72040;55.842;37.384;2023-12-07T14:22:00;14.13;;;7.85;;
82401;SDS011;72040;55.842;37.384;2023-12-07T14:24:26;11.68;;;8.25;;
82401;SDS011;72040;55.842;37.384;2023-12-07T14:26:53;12.85;;;7.93;;
82401;SDS011;72040;55.842;37.384;2023-12-07T14:29:20;11.55;;;7.13;;
82401;SDS011;72040;55.842;37.384;2023-12-07T14:31:47;12.35;;;7.38;;
82401;SDS011;72040;55.842;37.384;2023-12-07T14:34:14;8.90;;;6.63;;
82401;SDS011;72040;55.842;37.384;2023-12-07T14:36:41;11.82;;;7.10;;
82401;SDS011;72040;55.842;37.384;2023-12-07T14:39:09;11.18;;;7.22;;